Time;durP1;ratioP1;P1;durP2;ratioP2;P2;SDS_P1;SDS_P2;PMS_P1;PMS_P2;Temp;Humidity;BMP_temperature;BMP_pressure;BME280_temperature;BME280_humidity;BME280_pressure;Samples;Min_cycle;Max_cycle;Signal;HPM_P1;HPM_P2
2021/10/05 00:02:13;;;;;;;4.65;1.30;;;13.30;99.90;;;;;;5112259;28;20089;-75
2021/10/05 00:04:39;;;;;;;4.50;1.23;;;13.30;99.90;;;;;;5093946;28;20037;-75
2021/10/05 00:07:04;;;;;;;2.35;1.23;;;13.20;99.90;;;;;;5109637;27;20085;-75
2021/10/05 00:09:30;;;;;;;3.53;1.55;;;13.00;99.90;;;;;;5091726;28;20501;-75
2021/10/05 00:11:56;;;;;;;2.83;1.10;;;13.00;99.90;;;;;;5113076;28;20066;-75
2021/10/05 00:14:22;;;;;;;4.28;1.50;;;13.00;99.90;;;;;;5109025;28;20379;-75
2021/10/05 00:16:48;;;;;;;3.60;1.20;;;12.90;99.90;;;;;;5093946;28;20051;-75
2021/10/05 00:19:14;;;;;;;6.43;1.20;;;12.90;99.90;;;;;;5112677;28;20051;-75
2021/10/05 00:21:40;;;;;;;2.17;1.33;;;12.90;99.90;;;;;;5108493;28;20032;-75
2021/10/05 00:24:06;;;;;;;7.90;1.60;;;12.90;99.90;;;;;;5111908;28;20028;-75
2021/10/05 00:26:31;;;;;;;4.82;1.20;;;12.90;99.90;;;;;;5112244;28;20023;-75
2021/10/05 00:28:57;;;;;;;5.32;1.92;;;12.90;99.90;;;;;;5097511;28;20044;-75
2021/10/05 00:31:22;;;;;;;4.85;1.00;;;12.90;99.90;;;;;;5112157;28;20031;-75
2021/10/05 00:33:48;;;;;;;6.15;1.40;;;12.90;99.90;;;;;;5112461;28;20031;-75
2021/10/05 00:36:14;;;;;;;3.08;1.30;;;13.00;99.90;;;;;;5109145;27;20117;-75
2021/10/05 00:38:39;;;;;;;4.15;1.20;;;13.00;99.90;;;;;;5110385;28;20028;-75
2021/10/05 00:41:05;;;;;;;2.08;1.20;;;13.00;99.90;;;;;;5110560;27;20023;-75
2021/10/05 00:43:30;;;;;;;6.63;1.17;;;12.90;99.90;;;;;;5110296;28;20034;-74
2021/10/05 00:45:56;;;;;;;8.07;1.30;;;12.90;99.90;;;;;;5111579;28;20038;-74
2021/10/05 00:48:22;;;;;;;5.50;1.50;;;12.80;99.90;;;;;;5108388;28;20028;-75
2021/10/05 00:50:48;;;;;;;5.30;1.40;;;12.90;99.90;;;;;;5111398;28;20036;-75
2021/10/05 00:53:15;;;;;;;7.75;1.80;;;12.80;99.90;;;;;;5108717;27;20015;-75
2021/10/05 00:55:40;;;;;;;7.72;1.83;;;12.80;99.90;;;;;;5092417;28;20024;-75
2021/10/05 00:58:07;;;;;;;3.80;1.17;;;12.80;99.90;;;;;;5111440;28;20028;-75
2021/10/05 01:00:32;;;;;;;4.90;1.38;;;12.80;99.90;;;;;;5108406;27;20041;-75
2021/10/05 01:02:58;;;;;;;6.30;1.55;;;12.80;99.90;;;;;;5111419;28;20056;-75
2021/10/05 01:05:24;;;;;;;3.28;1.38;;;12.80;99.90;;;;;;5108296;27;20348;-75
2021/10/05 01:07:50;;;;;;;3.22;1.27;;;12.80;99.90;;;;;;5110620;28;20467;-75
2021/10/05 01:10:17;;;;;;;6.82;1.55;;;12.80;99.90;;;;;;5111864;28;20031;-75
2021/10/05 01:12:51;;;;;;;3.67;1.30;;;12.70;99.90;;;;;;5092990;28;20020;-75
2021/10/05 01:15:19;;;;;;;4.93;1.35;;;12.70;99.90;;;;;;5110414;28;20024;-74
2021/10/05 01:17:44;;;;;;;3.25;1.00;;;12.70;99.90;;;;;;5111719;28;20019;-75
2021/10/05 01:20:11;;;;;;;5.75;1.20;;;12.70;99.90;;;;;;5107887;28;20039;-75
2021/10/05 01:22:37;;;;;;;3.70;1.15;;;12.70;99.90;;;;;;5109212;28;20026;-75
2021/10/05 01:25:11;;;;;;;6.43;1.05;;;12.70;99.90;;;;;;5108254;27;20111;-74
2021/10/05 01:27:42;;;;;;;7.03;2.03;;;12.70;99.90;;;;;;5110793;28;20106;-75
2021/10/05 01:30:08;;;;;;;3.05;1.30;;;12.70;99.90;;;;;;5110626;28;20047;-75
2021/10/05 01:32:34;;;;;;;5.85;1.50;;;12.60;99.90;;;;;;5107211;28;20514;-74
2021/10/05 01:35:00;;;;;;;4.53;1.17;;;12.60;99.90;;;;;;5110279;28;20027;-75
2021/10/05 01:37:25;;;;;;;4.53;1.15;;;12.60;99.90;;;;;;5088967;28;20020;-74
2021/10/05 01:39:51;;;;;;;2.78;1.40;;;12.50;99.90;;;;;;5089726;28;20058;-74
2021/10/05 01:42:16;;;;;;;8.73;1.95;;;12.50;99.90;;;;;;5109013;28;20069;-74
2021/10/05 01:44:44;;;;;;;5.60;1.50;;;12.50;99.90;;;;;;5106429;28;20019;-74
2021/10/05 01:47:10;;;;;;;3.42;1.10;;;12.60;99.90;;;;;;5107538;28;20024;-74
2021/10/05 01:49:36;;;;;;;8.85;1.50;;;12.60;99.90;;;;;;5109630;28;20032;-74
2021/10/05 01:52:04;;;;;;;7.50;1.10;;;12.70;99.90;;;;;;5110772;28;20379;-74
2021/10/05 01:54:29;;;;;;;3.90;1.27;;;12.80;99.90;;;;;;5106748;28;20475;-74
2021/10/05 01:56:55;;;;;;;8.07;1.50;;;12.70;99.90;;;;;;5110259;28;20019;-74
2021/10/05 01:59:21;;;;;;;4.18;1.63;;;12.80;99.90;;;;;;5088893;28;20378;-74
2021/10/05 02:01:47;;;;;;;4.28;1.05;;;12.70;99.90;;;;;;5109984;28;20031;-74
2021/10/05 02:04:12;;;;;;;6.75;1.40;;;12.70;99.90;;;;;;5110771;28;20028;-74
2021/10/05 02:06:38;;;;;;;3.85;1.30;;;12.60;99.90;;;;;;5110379;28;20372;-74
2021/10/05 02:09:06;;;;;;;4.53;1.42;;;12.60;99.90;;;;;;5106083;28;20159;-74
2021/10/05 02:11:32;;;;;;;4.18;1.40;;;12.70;99.90;;;;;;5090498;28;20053;-75
2021/10/05 02:13:57;;;;;;;3.60;1.00;;;12.70;99.90;;;;;;5108195;28;20423;-74
2021/10/05 02:16:23;;;;;;;2.53;1.20;;;12.70;99.90;;;;;;5110341;28;20553;-75
2021/10/05 02:18:49;;;;;;;6.13;1.00;;;12.70;99.90;;;;;;5110562;28;20038;-75
2021/10/05 02:21:16;;;;;;;1.45;1.15;;;12.70;99.90;;;;;;5107535;28;20030;-74
2021/10/05 02:26:27;;;;;;;2.08;1.33;;;12.70;99.90;;;;;;5105722;28;20046;-75
2021/10/05 02:28:53;;;;;;;4.40;1.63;;;12.80;99.90;;;;;;5109899;28;20511;-74
2021/10/05 02:31:19;;;;;;;5.22;1.25;;;12.70;99.90;;;;;;5110576;28;20035;-74
2021/10/05 02:33:44;;;;;;;3.65;1.50;;;12.50;99.90;;;;;;5110912;28;20097;-75
2021/10/05 02:36:10;;;;;;;5.85;1.55;;;12.50;99.90;;;;;;5089519;28;20032;-75
2021/10/05 02:38:35;;;;;;;5.55;1.20;;;12.50;99.90;;;;;;5109800;28;20515;-75
2021/10/05 02:41:01;;;;;;;2.88;0.98;;;12.40;99.90;;;;;;5110425;28;20524;-74
2021/10/05 02:43:27;;;;;;;3.35;0.98;;;12.40;99.90;;;;;;5089758;28;20148;-74
2021/10/05 02:45:52;;;;;;;1.98;1.17;;;12.40;99.90;;;;;;5109179;28;20031;-74
2021/10/05 02:48:18;;;;;;;2.42;1.27;;;12.50;99.90;;;;;;5111817;28;20107;-75
2021/10/05 02:50:44;;;;;;;6.68;1.33;;;12.40;99.90;;;;;;5112223;28;20487;-75
2021/10/05 02:53:09;;;;;;;0.70;0.70;;;12.40;99.90;;;;;;5114533;28;20035;-74
2021/10/05 02:55:35;;;;;;;3.08;1.02;;;12.40;99.90;;;;;;5094548;28;20581;-74
2021/10/05 02:58:00;;;;;;;6.35;1.00;;;12.40;99.90;;;;;;5114010;28;20032;-74
2021/10/05 03:00:26;;;;;;;2.42;1.42;;;12.50;99.90;;;;;;5113549;28;20110;-75
2021/10/05 03:02:52;;;;;;;5.10;1.60;;;12.50;99.90;;;;;;5114358;28;20024;-74
2021/10/05 03:05:17;;;;;;;3.53;1.15;;;12.60;99.90;;;;;;5114843;28;20033;-75
2021/10/05 03:07:43;;;;;;;8.50;1.17;;;12.70;99.90;;;;;;5113662;28;20495;-75
2021/10/05 03:10:09;;;;;;;4.35;1.08;;;12.60;99.90;;;;;;5114009;28;20483;-75
2021/10/05 03:12:35;;;;;;;4.80;0.98;;;12.70;99.90;;;;;;5111731;27;20039;-75
2021/10/05 03:15:01;;;;;;;2.45;1.20;;;12.60;99.90;;;;;;5111746;28;20035;-75
2021/10/05 03:17:26;;;;;;;3.72;1.25;;;12.60;99.90;;;;;;5113441;28;20016;-75
2021/10/05 03:19:52;;;;;;;4.22;1.30;;;12.60;99.90;;;;;;5113796;28;20027;-75
2021/10/05 03:22:18;;;;;;;2.75;1.33;;;12.50;99.90;;;;;;5112309;28;20024;-75
2021/10/05 03:24:43;;;;;;;7.82;1.08;;;12.50;99.90;;;;;;5111111;27;20036;-75
2021/10/05 03:27:10;;;;;;;4.28;1.13;;;12.50;99.90;;;;;;5112311;28;20031;-75
2021/10/05 03:29:37;;;;;;;2.85;1.20;;;12.50;99.90;;;;;;5113242;28;20084;-76
2021/10/05 03:32:03;;;;;;;1.67;1.27;;;12.60;99.90;;;;;;5114192;28;20058;-75
2021/10/05 03:34:28;;;;;;;1.20;1.10;;;12.50;99.90;;;;;;5109824;28;20434;-75
2021/10/05 03:36:54;;;;;;;3.58;1.33;;;12.50;99.90;;;;;;5113296;28;20031;-76
2021/10/05 03:39:20;;;;;;;4.20;1.42;;;12.40;99.90;;;;;;5109328;28;20028;-75
2021/10/05 03:41:45;;;;;;;2.10;1.38;;;12.40;99.90;;;;;;5110907;27;20028;-76
2021/10/05 03:44:11;;;;;;;1.95;1.05;;;12.40;99.90;;;;;;5112814;28;20074;-76
2021/10/05 03:46:36;;;;;;;4.22;1.58;;;12.50;99.90;;;;;;5095003;28;20045;-76
2021/10/05 03:49:02;;;;;;;2.92;1.33;;;12.50;99.90;;;;;;5113294;28;20039;-75
2021/10/05 03:51:28;;;;;;;1.40;1.30;;;12.50;99.90;;;;;;5109918;27;20034;-77
2021/10/05 03:53:53;;;;;;;4.72;1.02;;;12.50;99.90;;;;;;5111376;28;20015;-77
2021/10/05 03:56:19;;;;;;;4.45;1.13;;;12.50;99.90;;;;;;5113228;28;20486;-76
2021/10/05 03:58:45;;;;;;;4.22;1.30;;;12.60;99.90;;;;;;5112231;28;20020;-76
2021/10/05 04:01:10;;;;;;;3.28;1.20;;;12.50;99.90;;;;;;5113383;28;20039;-76
2021/10/05 04:03:36;;;;;;;1.63;1.10;;;12.50;99.90;;;;;;5113132;28;20383;-76
2021/10/05 04:06:01;;;;;;;4.03;1.30;;;12.50;99.90;;;;;;5112248;28;20465;-76
2021/10/05 04:08:28;;;;;;;3.67;3.08;;;12.40;99.90;;;;;;5092344;28;20034;-76
2021/10/05 04:10:53;;;;;;;9.20;5.18;;;12.50;99.90;;;;;;5112264;28;20430;-76
2021/10/05 04:13:19;;;;;;;9.40;5.03;;;12.50;99.90;;;;;;5113266;28;20099;-76
2021/10/05 04:15:45;;;;;;;9.05;5.53;;;12.50;99.90;;;;;;5112718;28;20433;-76
2021/10/05 04:18:10;;;;;;;7.85;4.22;;;12.60;99.90;;;;;;5110094;28;20027;-76
2021/10/05 04:20:36;;;;;;;4.13;2.88;;;12.60;99.90;;;;;;5111562;28;20467;-76
2021/10/05 04:23:03;;;;;;;4.25;2.78;;;12.70;99.90;;;;;;5113011;28;20073;-76
2021/10/05 04:25:28;;;;;;;2.90;1.58;;;12.70;99.90;;;;;;5112535;28;20055;-77
2021/10/05 04:27:54;;;;;;;4.18;1.90;;;12.70;99.90;;;;;;5111802;28;20471;-76
2021/10/05 04:30:20;;;;;;;2.80;1.58;;;12.70;99.90;;;;;;5112081;28;20391;-77
2021/10/05 04:32:46;;;;;;;4.32;1.40;;;12.60;99.90;;;;;;5112525;28;20126;-77
2021/10/05 04:35:11;;;;;;;3.50;1.83;;;12.60;99.90;;;;;;5112259;28;20023;-77
2021/10/05 04:37:37;;;;;;;2.65;2.00;;;12.60;99.90;;;;;;5111491;28;20023;-77
2021/10/05 04:40:05;;;;;;;2.10;1.52;;;12.60;99.90;;;;;;5112276;28;20061;-76
2021/10/05 04:42:31;;;;;;;1.48;1.23;;;12.60;99.90;;;;;;5093777;28;20092;-77
2021/10/05 04:44:57;;;;;;;2.17;1.10;;;12.50;99.90;;;;;;5108187;27;20023;-76
2021/10/05 04:47:23;;;;;;;5.35;1.20;;;12.50;99.90;;;;;;5111288;28;20019;-76
2021/10/05 04:49:48;;;;;;;3.83;1.33;;;12.40;99.90;;;;;;5109220;27;20074;-76
2021/10/05 04:52:14;;;;;;;2.63;1.50;;;12.40;99.90;;;;;;5090581;28;20383;-76
2021/10/05 04:54:40;;;;;;;2.00;1.30;;;12.50;99.90;;;;;;5112210;28;20478;-76
2021/10/05 04:57:05;;;;;;;4.47;1.15;;;12.50;99.90;;;;;;5108043;28;20053;-76
2021/10/05 04:59:32;;;;;;;1.73;1.10;;;12.50;99.90;;;;;;5110599;28;20040;-76
2021/10/05 05:01:58;;;;;;;6.20;1.48;;;12.50;99.90;;;;;;5093203;28;20384;-76
2021/10/05 05:04:23;;;;;;;2.60;1.75;;;12.50;99.90;;;;;;5108454;28;20038;-76
2021/10/05 05:06:49;;;;;;;4.07;1.17;;;12.50;99.90;;;;;;5110976;28;20101;-76
2021/10/05 05:09:14;;;;;;;3.63;1.58;;;12.50;99.90;;;;;;5107767;28;20536;-76
2021/10/05 05:11:40;;;;;;;4.05;1.15;;;12.40;99.90;;;;;;5110633;28;20531;-76
2021/10/05 05:14:11;;;;;;;1.70;1.33;;;12.50;99.90;;;;;;5108224;28;20019;-76
2021/10/05 05:16:38;;;;;;;4.05;1.25;;;12.40;99.90;;;;;;5111449;28;20097;-77
2021/10/05 05:19:05;;;;;;;2.17;1.75;;;12.50;99.90;;;;;;5089865;28;20509;-77
2021/10/05 05:21:31;;;;;;;5.53;1.13;;;12.40;99.90;;;;;;5109891;28;20039;-77
2021/10/05 05:23:57;;;;;;;4.90;1.35;;;12.50;99.90;;;;;;5108827;28;20475;-77
2021/10/05 05:26:23;;;;;;;2.53;1.20;;;12.50;99.90;;;;;;5110633;28;20564;-76
2021/10/05 05:28:48;;;;;;;5.28;1.23;;;12.40;99.90;;;;;;5107061;28;20024;-76
2021/10/05 05:31:14;;;;;;;3.45;1.30;;;12.40;99.90;;;;;;5110006;28;20055;-77
2021/10/05 05:33:40;;;;;;;4.40;1.20;;;12.40;99.90;;;;;;5111356;28;20296;-77
2021/10/05 05:36:05;;;;;;;3.38;1.20;;;12.40;99.90;;;;;;5108416;28;20027;-77
2021/10/05 05:38:31;;;;;;;4.40;1.50;;;12.40;99.90;;;;;;5109524;28;20386;-77
2021/10/05 05:40:57;;;;;;;4.55;1.48;;;12.30;99.90;;;;;;5111302;28;20024;-76
2021/10/05 05:43:22;;;;;;;3.90;1.70;;;12.40;99.90;;;;;;5107808;28;20019;-77
2021/10/05 05:45:48;;;;;;;3.05;1.30;;;12.40;99.90;;;;;;5093998;28;20033;-76
2021/10/05 05:48:14;;;;;;;1.65;0.95;;;12.50;99.90;;;;;;5110740;28;20051;-76
2021/10/05 05:50:40;;;;;;;2.80;0.98;;;12.40;99.90;;;;;;5110793;28;20036;-76
2021/10/05 05:53:05;;;;;;;2.60;1.38;;;12.40;99.90;;;;;;5108427;28;20023;-76
2021/10/05 05:55:31;;;;;;;2.22;1.20;;;12.40;99.90;;;;;;5108660;28;20080;-76
2021/10/05 05:57:56;;;;;;;5.40;1.27;;;12.30;99.90;;;;;;5091701;28;20023;-76
2021/10/05 06:00:22;;;;;;;1.98;1.30;;;12.30;99.90;;;;;;5110398;28;20131;-77
2021/10/05 06:02:48;;;;;;;2.80;1.13;;;12.30;99.90;;;;;;5110415;28;20035;-76
2021/10/05 06:05:14;;;;;;;4.35;1.42;;;12.30;99.90;;;;;;5109660;28;20008;-77
2021/10/05 06:07:40;;;;;;;3.88;1.20;;;12.30;99.90;;;;;;5104187;28;20039;-76
2021/10/05 06:10:08;;;;;;;2.78;1.15;;;12.30;99.90;;;;;;5109229;28;20028;-76
2021/10/05 06:12:40;;;;;;;2.47;1.65;;;12.20;99.90;;;;;;5090316;28;20414;-76
2021/10/05 06:15:12;;;;;;;2.78;1.30;;;12.20;99.90;;;;;;5107928;28;20026;-76
2021/10/05 06:17:43;;;;;;;4.10;1.37;;;12.30;99.90;;;;;;5110650;28;20081;-77
2021/10/05 06:20:11;;;;;;;3.55;1.80;;;12.30;99.90;;;;;;5110305;28;20284;-76
2021/10/05 06:22:38;;;;;;;4.65;1.63;;;12.30;99.90;;;;;;5109966;27;20158;-76
2021/10/05 06:25:10;;;;;;;3.78;1.45;;;12.20;99.90;;;;;;5114282;28;20462;-76
2021/10/05 06:27:35;;;;;;;3.30;1.30;;;12.30;99.90;;;;;;5111699;28;20024;-75
2021/10/05 06:30:01;;;;;;;3.55;1.67;;;12.40;99.90;;;;;;5111420;28;20040;-76
2021/10/05 06:32:27;;;;;;;1.45;1.35;;;12.40;99.90;;;;;;5115075;28;20115;-76
2021/10/05 06:34:53;;;;;;;6.38;2.03;;;12.30;99.90;;;;;;5110041;27;20024;-76
2021/10/05 06:37:19;;;;;;;5.78;2.38;;;12.30;99.90;;;;;;5113958;28;20437;-75
2021/10/05 06:39:45;;;;;;;2.53;1.67;;;12.20;99.90;;;;;;5111241;28;20027;-76
2021/10/05 06:42:11;;;;;;;4.18;2.22;;;12.30;99.90;;;;;;5114016;28;20019;-75
2021/10/05 06:44:38;;;;;;;3.65;2.20;;;12.30;99.90;;;;;;5114433;28;20027;-75
2021/10/05 06:47:03;;;;;;;6.38;2.65;;;12.30;99.90;;;;;;5114384;28;20367;-76
2021/10/05 06:49:29;;;;;;;3.60;2.22;;;12.30;99.90;;;;;;5113666;28;20043;-76
2021/10/05 06:51:55;;;;;;;4.95;2.03;;;12.30;99.90;;;;;;5111066;28;20049;-76
2021/10/05 06:54:20;;;;;;;7.40;2.13;;;12.40;99.90;;;;;;5113138;28;20275;-76
2021/10/05 06:56:46;;;;;;;3.80;2.53;;;12.40;99.90;;;;;;5113977;28;20126;-76
2021/10/05 06:59:12;;;;;;;2.38;2.17;;;12.50;99.90;;;;;;5110484;28;20023;-76
2021/10/05 07:01:38;;;;;;;4.40;1.80;;;12.40;99.90;;;;;;5113227;28;20031;-76
2021/10/05 07:04:03;;;;;;;5.40;2.35;;;12.40;99.90;;;;;;5110698;27;20401;-75
2021/10/05 07:06:29;;;;;;;6.05;1.80;;;12.40;99.90;;;;;;5112480;28;20103;-76
2021/10/05 07:08:55;;;;;;;3.15;1.75;;;12.40;99.90;;;;;;5110268;28;20020;-76
2021/10/05 07:11:21;;;;;;;6.43;1.63;;;12.40;99.90;;;;;;5112980;28;20494;-76
2021/10/05 07:13:47;;;;;;;6.32;1.38;;;12.50;99.90;;;;;;5094938;28;20019;-75
2021/10/05 07:16:13;;;;;;;11.90;1.95;;;12.50;99.90;;;;;;5110839;28;20027;-75
2021/10/05 07:18:39;;;;;;;4.72;1.52;;;12.60;99.90;;;;;;5112786;28;20024;-76
2021/10/05 07:21:04;;;;;;;6.28;2.00;;;12.60;99.90;;;;;;5113292;28;20130;-76
2021/10/05 07:23:30;;;;;;;3.90;1.88;;;12.70;99.90;;;;;;5113725;28;20026;-76
2021/10/05 07:25:56;;;;;;;2.85;1.67;;;12.70;99.90;;;;;;5113952;28;20028;-76
2021/10/05 07:28:22;;;;;;;6.78;1.80;;;12.70;99.90;;;;;;5113509;28;20487;-76
2021/10/05 07:30:48;;;;;;;2.38;1.60;;;12.70;99.90;;;;;;5109546;28;20518;-76
2021/10/05 07:33:14;;;;;;;4.53;1.58;;;12.80;99.90;;;;;;5111771;28;20094;-75
2021/10/05 07:35:40;;;;;;;2.97;1.42;;;12.80;99.90;;;;;;5109265;27;20106;-75
2021/10/05 07:38:06;;;;;;;3.38;1.48;;;12.80;99.90;;;;;;5112463;28;20107;-75
2021/10/05 07:40:33;;;;;;;4.65;1.50;;;12.90;99.90;;;;;;5113154;28;20020;-75
2021/10/05 07:43:00;;;;;;;7.05;1.50;;;13.00;99.90;;;;;;5091013;28;20072;-76
2021/10/05 07:45:27;;;;;;;4.60;1.50;;;13.10;99.90;;;;;;5109924;28;20499;-75
2021/10/05 07:47:53;;;;;;;4.50;1.70;;;13.10;99.90;;;;;;5112711;28;20019;-75
2021/10/05 07:50:20;;;;;;;6.35;1.50;;;13.30;99.90;;;;;;5112603;28;20057;-76
2021/10/05 07:52:45;;;;;;;3.70;1.30;;;13.50;99.90;;;;;;5112635;28;20059;-76
2021/10/05 07:55:11;;;;;;;4.32;1.15;;;13.50;99.90;;;;;;5112013;28;20061;-77
2021/10/05 07:57:37;;;;;;;5.07;1.40;;;13.50;99.90;;;;;;5112296;28;20139;-76
2021/10/05 08:00:07;;;;;;;3.53;1.38;;;13.70;99.90;;;;;;5112573;28;20131;-76
2021/10/05 08:02:33;;;;;;;2.88;1.42;;;13.80;99.90;;;;;;5094015;28;20016;-77
2021/10/05 08:04:58;;;;;;;6.32;1.48;;;13.80;99.90;;;;;;5112168;28;20051;-76
2021/10/05 08:07:26;;;;;;;3.78;1.50;;;13.90;99.90;;;;;;5111796;28;20052;-74
2021/10/05 08:09:56;;;;;;;2.22;1.40;;;14.00;99.90;;;;;;5111369;28;20559;-75
2021/10/05 08:12:23;;;;;;;2.40;1.38;;;14.00;99.90;;;;;;5105725;28;20019;-74
2021/10/05 08:14:50;;;;;;;8.73;1.40;;;14.20;99.90;;;;;;5111331;28;20032;-74
2021/10/05 08:17:16;;;;;;;3.08;1.30;;;14.30;99.90;;;;;;5111516;28;20032;-74
2021/10/05 08:19:42;;;;;;;7.75;1.35;;;14.40;99.90;;;;;;5104982;28;20035;-75
2021/10/05 08:22:08;;;;;;;5.25;1.63;;;14.50;99.90;;;;;;5093208;28;20016;-74
2021/10/05 08:24:35;;;;;;;2.05;1.20;;;14.40;99.90;;;;;;5112269;28;20084;-75
2021/10/05 08:27:01;;;;;;;4.88;1.60;;;14.60;99.90;;;;;;5108544;28;20031;-74
2021/10/05 08:29:27;;;;;;;4.60;1.77;;;14.70;99.90;;;;;;5110830;28;20035;-75
2021/10/05 08:31:53;;;;;;;2.13;1.50;;;14.70;99.90;;;;;;5112286;28;20032;-75
2021/10/05 08:34:19;;;;;;;2.72;1.40;;;14.80;99.90;;;;;;5112678;28;20023;-75
2021/10/05 08:36:45;;;;;;;4.88;1.33;;;14.80;99.90;;;;;;5108843;28;20247;-74
2021/10/05 08:39:14;;;;;;;4.05;1.27;;;15.00;99.90;;;;;;5105920;28;20102;-75
2021/10/05 08:41:44;;;;;;;3.72;1.17;;;15.00;99.90;;;;;;5108489;28;20024;-74
2021/10/05 08:44:10;;;;;;;3.10;1.30;;;15.00;99.90;;;;;;5111768;28;20020;-75
2021/10/05 08:46:37;;;;;;;5.97;1.35;;;15.10;99.90;;;;;;5112617;28;20061;-74
2021/10/05 08:49:04;;;;;;;3.63;1.92;;;15.20;99.90;;;;;;5093331;28;20016;-74
2021/10/05 08:51:30;;;;;;;7.15;1.95;;;15.30;99.90;;;;;;5112114;28;20028;-73
2021/10/05 08:53:56;;;;;;;7.15;1.50;;;15.40;99.90;;;;;;5108829;28;20019;-74
2021/10/05 08:56:22;;;;;;;4.82;1.55;;;15.40;99.90;;;;;;5111405;28;20030;-74
2021/10/05 08:58:47;;;;;;;4.10;1.40;;;15.40;99.90;;;;;;5110878;28;20027;-74
2021/10/05 09:01:16;;;;;;;4.15;1.63;;;15.50;99.90;;;;;;5111778;28;20217;-74
2021/10/05 09:03:53;;;;;;;1.92;1.02;;;15.60;99.90;;;;;;5109158;28;20051;-74
2021/10/05 09:06:21;;;;;;;3.88;1.38;;;15.70;99.90;;;;;;5105093;28;20035;-74
2021/10/05 09:08:48;;;;;;;4.05;1.48;;;15.80;99.90;;;;;;5109672;28;20073;-74
2021/10/05 09:11:16;;;;;;;5.30;1.10;;;15.90;99.90;;;;;;5110485;28;20015;-74
2021/10/05 09:13:48;;;;;;;2.90;1.52;;;15.90;99.90;;;;;;5107290;28;20016;-74
2021/10/05 09:16:33;;;;;;;5.35;1.35;;;16.00;99.90;;;;;;5111757;28;20425;-74
2021/10/05 09:19:00;;;;;;;2.28;1.10;;;16.10;99.90;;;;;;5111106;28;20049;-74
2021/10/05 09:21:37;;;;;;;4.10;1.30;;;16.20;99.90;;;;;;5112722;28;20020;-74
2021/10/05 09:24:09;;;;;;;3.25;1.83;;;16.30;99.90;;;;;;5108730;28;20368;-74
2021/10/05 09:26:39;;;;;;;3.40;1.30;;;16.50;99.90;;;;;;5110913;28;20027;-74
2021/10/05 09:29:08;;;;;;;4.38;1.27;;;16.50;99.90;;;;;;5089590;28;20031;-73
2021/10/05 09:31:56;;;;;;;3.85;1.30;;;16.60;99.90;;;;;;5109831;28;20095;-74
2021/10/05 09:34:33;;;;;;;2.95;1.20;;;16.70;99.90;;;;;;5110405;28;20028;-74
2021/10/05 09:37:07;;;;;;;4.80;1.20;;;16.90;99.90;;;;;;5110797;28;20035;-74
2021/10/05 09:39:40;;;;;;;4.00;1.05;;;17.00;99.90;;;;;;5109645;28;20352;-73
2021/10/05 09:42:06;;;;;;;4.20;1.00;;;17.20;99.90;;;;;;5108840;28;20152;-73
2021/10/05 09:44:33;;;;;;;2.72;1.10;;;17.20;99.90;;;;;;5111425;28;20016;-73
2021/10/05 09:46:58;;;;;;;3.78;1.35;;;17.10;99.90;;;;;;5106222;28;20047;-73
2021/10/05 09:49:24;;;;;;;2.38;1.15;;;17.20;99.90;;;;;;5111124;28;20387;-74
2021/10/05 09:52:01;;;;;;;4.47;1.20;;;17.30;99.90;;;;;;5110695;28;20327;-73
2021/10/05 09:54:27;;;;;;;4.80;1.35;;;17.30;99.90;;;;;;5106349;28;20036;-73
2021/10/05 09:56:54;;;;;;;3.42;1.30;;;17.50;99.90;;;;;;5106643;28;20502;-74
2021/10/05 09:59:20;;;;;;;5.07;1.50;;;17.70;99.90;;;;;;5116022;28;20047;-75
2021/10/05 10:01:46;;;;;;;2.25;1.08;;;17.80;99.90;;;;;;5113453;27;20078;-74
2021/10/05 10:04:12;;;;;;;1.73;1.10;;;17.80;99.90;;;;;;5116248;28;20028;-74
2021/10/05 10:06:38;;;;;;;3.08;1.00;;;17.90;99.90;;;;;;5113874;27;20046;-74
2021/10/05 10:09:05;;;;;;;1.92;0.82;;;18.10;99.90;;;;;;5116101;28;20428;-74
2021/10/05 10:11:31;;;;;;;1.70;0.80;;;18.20;99.90;;;;;;5116514;28;20012;-74
2021/10/05 10:13:59;;;;;;;5.00;1.10;;;18.20;99.90;;;;;;5118131;28;20106;-73
2021/10/05 10:16:26;;;;;;;7.05;1.17;;;18.40;99.90;;;;;;5114450;27;20024;-73
2021/10/05 10:19:02;;;;;;;2.20;1.10;;;18.50;99.90;;;;;;5115650;28;20024;-73
2021/10/05 10:21:37;;;;;;;2.00;0.50;;;18.40;99.90;;;;;;5115488;27;20103;-74
2021/10/05 10:24:21;;;;;;;3.55;0.90;;;18.30;99.90;;;;;;5114928;28;20023;-74
2021/10/05 10:26:51;;;;;;;4.43;1.30;;;18.50;99.90;;;;;;5115903;28;20097;-74
2021/10/05 10:29:27;;;;;;;4.32;0.70;;;18.40;99.90;;;;;;5114672;28;20344;-74
2021/10/05 10:31:53;;;;;;;5.38;1.13;;;18.30;99.90;;;;;;5116861;28;20064;-74
2021/10/05 10:34:23;;;;;;;3.95;1.20;;;18.10;99.90;;;;;;5117206;28;20059;-74
2021/10/05 10:36:50;;;;;;;4.82;0.85;;;18.20;99.90;;;;;;5115931;28;21743;-74
2021/10/05 10:39:17;;;;;;;6.10;0.93;;;18.20;99.90;;;;;;5115818;28;20034;-74
2021/10/05 10:41:46;;;;;;;2.20;0.85;;;18.10;99.90;;;;;;5116716;28;20102;-74
2021/10/05 10:44:14;;;;;;;6.72;1.40;;;18.20;99.90;;;;;;5116897;28;20022;-75
2021/10/05 10:46:42;;;;;;;5.25;0.80;;;18.30;99.90;;;;;;5113611;27;20506;-74
2021/10/05 10:49:16;;;;;;;2.85;0.88;;;18.30;99.90;;;;;;5114607;28;20483;-74
2021/10/05 10:51:45;;;;;;;4.65;0.90;;;18.30;99.90;;;;;;5116909;28;20011;-74
2021/10/05 10:54:16;;;;;;;3.75;0.85;;;18.40;99.90;;;;;;5112141;27;20124;-73
2021/10/05 10:56:44;;;;;;;4.28;1.25;;;18.40;99.90;;;;;;5116140;28;20015;-74
2021/10/05 10:59:12;;;;;;;2.83;0.90;;;18.60;99.90;;;;;;5116913;28;20053;-74
2021/10/05 11:01:45;;;;;;;4.05;0.93;;;18.60;99.90;;;;;;5117121;28;20027;-74
2021/10/05 11:04:13;;;;;;;2.05;0.85;;;18.50;99.90;;;;;;5095769;28;20032;-74
2021/10/05 11:06:43;;;;;;;2.47;0.68;;;18.30;99.90;;;;;;5116496;27;20031;-75
2021/10/05 11:09:08;;;;;;;2.20;0.68;;;18.40;99.90;;;;;;5090984;28;20038;-75
2021/10/05 11:11:43;;;;;;;2.15;0.80;;;18.40;99.90;;;;;;5113087;28;20355;-76
2021/10/05 11:14:12;;;;;;;2.60;0.77;;;18.30;99.90;;;;;;5112875;28;20038;-74
2021/10/05 11:16:39;;;;;;;4.72;0.70;;;18.30;99.90;;;;;;5107549;27;20027;-75
2021/10/05 11:19:12;;;;;;;1.05;0.63;;;18.10;99.90;;;;;;5113329;28;20106;-74
2021/10/05 11:21:40;;;;;;;4.60;0.88;;;18.10;99.90;;;;;;5110592;27;20023;-75
2021/10/05 11:24:06;;;;;;;4.35;0.70;;;18.10;99.90;;;;;;5113166;28;20467;-75
2021/10/05 11:26:35;;;;;;;1.42;0.38;;;18.10;99.90;;;;;;5113635;28;20019;-75
2021/10/05 11:29:02;;;;;;;4.68;0.95;;;18.20;99.90;;;;;;5091364;28;20454;-76
2021/10/05 11:31:45;;;;;;;5.88;0.85;;;18.30;99.90;;;;;;5113162;28;20027;-74
2021/10/05 11:34:11;;;;;;;3.05;1.17;;;18.30;99.90;;;;;;5113302;28;20514;-73
2021/10/05 11:36:36;;;;;;;3.28;0.55;;;18.30;99.90;;;;;;5109862;27;20034;-74
2021/10/05 11:39:04;;;;;;;1.70;0.50;;;18.30;99.90;;;;;;5112338;27;20509;-73
2021/10/05 11:41:43;;;;;;;3.47;0.50;;;18.30;99.90;;;;;;5110094;27;20402;-74
2021/10/05 11:44:12;;;;;;;6.07;1.13;;;18.40;99.90;;;;;;5112720;28;20046;-74
2021/10/05 11:46:39;;;;;;;2.97;0.65;;;18.40;99.90;;;;;;5107784;28;20048;-74
2021/10/05 11:49:05;;;;;;;4.10;0.70;;;18.30;99.90;;;;;;5112239;28;20433;-73
2021/10/05 11:51:43;;;;;;;1.67;0.60;;;18.30;99.90;;;;;;5113371;28;20141;-74
2021/10/05 11:54:20;;;;;;;2.60;0.90;;;18.10;99.90;;;;;;5113003;28;20020;-74
2021/10/05 11:56:46;;;;;;;5.80;0.77;;;18.00;99.90;;;;;;5108660;27;20494;-74
2021/10/05 11:59:22;;;;;;;5.60;0.90;;;18.00;99.90;;;;;;5112097;28;20023;-74
2021/10/05 12:01:48;;;;;;;2.40;0.50;;;18.00;99.90;;;;;;5109330;27;20024;-74
2021/10/05 12:04:13;;;;;;;1.58;0.60;;;17.90;99.90;;;;;;5110941;28;20042;-74
2021/10/05 12:06:50;;;;;;;2.50;0.52;;;17.90;99.90;;;;;;5108391;27;20027;-74
2021/10/05 12:09:19;;;;;;;4.60;1.00;;;17.80;99.90;;;;;;5110232;28;20031;-74
2021/10/05 12:11:46;;;;;;;3.03;0.90;;;17.80;99.90;;;;;;5111333;28;20031;-74
2021/10/05 12:14:14;;;;;;;6.22;1.17;;;17.70;99.90;;;;;;5112309;28;20020;-76
2021/10/05 12:17:02;;;;;;;5.25;0.90;;;17.70;99.90;;;;;;5111723;28;20055;-75
2021/10/05 12:19:35;;;;;;;5.40;0.65;;;17.50;99.90;;;;;;5090344;28;20107;-76
2021/10/05 12:22:05;;;;;;;3.70;0.98;;;17.40;99.90;;;;;;5112650;28;20027;-76
2021/10/05 12:24:51;;;;;;;6.03;0.82;;;17.40;99.90;;;;;;5091813;28;20023;-76
2021/10/05 12:27:26;;;;;;;2.83;1.02;;;17.30;99.90;;;;;;5090167;28;20024;-77
2021/10/05 12:30:03;;;;;;;1.67;1.02;;;17.20;99.90;;;;;;5109651;28;20040;-77
2021/10/05 12:32:49;;;;;;;5.72;1.10;;;17.10;99.90;;;;;;5109027;28;20077;-78
2021/10/05 12:35:23;;;;;;;5.88;0.90;;;17.00;99.90;;;;;;5109721;28;20114;-77
2021/10/05 12:37:55;;;;;;;7.13;1.20;;;16.90;99.90;;;;;;5092527;28;20027;-77
2021/10/05 12:40:21;;;;;;;6.82;1.02;;;16.70;99.90;;;;;;5111895;28;20387;-77
2021/10/05 12:42:50;;;;;;;3.58;0.98;;;16.70;99.90;;;;;;5112275;28;20019;-77
2021/10/05 12:45:23;;;;;;;5.90;1.08;;;16.60;99.90;;;;;;5110365;28;20023;-77
2021/10/05 12:47:51;;;;;;;8.10;1.10;;;16.70;99.90;;;;;;5110899;28;20060;-77
2021/10/05 12:50:24;;;;;;;2.03;1.17;;;16.70;99.90;;;;;;5111411;28;20494;-77
2021/10/05 12:52:56;;;;;;;2.15;1.00;;;16.60;99.90;;;;;;5111688;28;20023;-77